sensor_id;sensor_type;location;lat;lon;timestamp;P1;durP1;ratioP1;P2;durP2;ratioP2
20393;SDS011;10356;50.544;9.642;2022-07-23T00:00:15;7.32;;;5.05;;
20393;SDS011;10356;50.544;9.642;2022-07-23T00:02:42;5.53;;;4.53;;
20393;SDS011;10356;50.544;9.642;2022-07-23T00:05:09;8.80;;;4.78;;
20393;SDS011;10356;50.544;9.642;2022-07-23T00:07:36;6.30;;;4.80;;
20393;SDS011;10356;50.544;9.642;2022-07-23T00:10:02;5.07;;;4.45;;
20393;SDS011;10356;50.544;9.642;2022-07-23T00:12:30;5.95;;;5.03;;
20393;SDS011;10356;50.544;9.642;2022-07-23T00:14:57;4.78;;;4.38;;
20393;SDS011;10356;50.544;9.642;2022-07-23T00:17:24;5.38;;;4.68;;
20393;SDS011;10356;50.544;9.642;2022-07-23T00:19:50;5.90;;;4.65;;
20393;SDS011;10356;50.544;9.642;2022-07-23T00:22:18;7.38;;;4.55;;
20393;SDS011;10356;50.544;9.642;2022-07-23T00:24:45;5.78;;;4.55;;
20393;SDS011;10356;50.544;9.642;2022-07-23T00:27:11;5.28;;;4.75;;
20393;SDS011;10356;50.544;9.642;2022-07-23T00:29:39;6.82;;;4.95;;
20393;SDS011;10356;50.544;9.642;2022-07-23T00:32:06;5.45;;;4.70;;
20393;SDS011;10356;50.544;9.642;2022-07-23T00:34:32;6.15;;;5.07;;
20393;SDS011;10356;50.544;9.642;2022-07-23T00:36:59;5.70;;;4.88;;
20393;SDS011;10356;50.544;9.642;2022-07-23T00:39:25;5.25;;;4.82;;
20393;SDS011;10356;50.544;9.642;2022-07-23T00:41:52;6.03;;;4.63;;
20393;SDS011;10356;50.544;9.642;2022-07-23T00:44:19;6.78;;;4.68;;
20393;SDS011;10356;50.544;9.642;2022-07-23T00:46:49;7.20;;;4.57;;
20393;SDS011;10356;50.544;9.642;2022-07-23T00:49:19;6.97;;;4.95;;
20393;SDS011;10356;50.544;9.642;2022-07-23T00:51:46;7.50;;;5.05;;
20393;SDS011;10356;50.544;9.642;2022-07-23T00:54:13;6.28;;;4.78;;
20393;SDS011;10356;50.544;9.642;2022-07-23T00:56:40;5.95;;;4.78;;
20393;SDS011;10356;50.544;9.642;2022-07-23T00:59:08;5.18;;;4.38;;
20393;SDS011;10356;50.544;9.642;2022-07-23T01:01:35;7.38;;;4.45;;
20393;SDS011;10356;50.544;9.642;2022-07-23T01:04:03;5.38;;;4.53;;
20393;SDS011;10356;50.544;9.642;2022-07-23T01:06:30;5.85;;;5.32;;
20393;SDS011;10356;50.544;9.642;2022-07-23T01:09:00;5.63;;;5.10;;
20393;SDS011;10356;50.544;9.642;2022-07-23T01:11:29;6.60;;;6.00;;
20393;SDS011;10356;50.544;9.642;2022-07-23T01:13:57;6.05;;;4.97;;
20393;SDS011;10356;50.544;9.642;2022-07-23T01:16:23;5.88;;;5.28;;
20393;SDS011;10356;50.544;9.642;2022-07-23T01:18:50;6.38;;;5.30;;
20393;SDS011;10356;50.544;9.642;2022-07-23T01:21:18;6.18;;;5.43;;
20393;SDS011;10356;50.544;9.642;2022-07-23T01:23:46;7.55;;;5.65;;
20393;SDS011;10356;50.544;9.642;2022-07-23T01:26:13;5.85;;;5.25;;
20393;SDS011;10356;50.544;9.642;2022-07-23T01:28:42;7.20;;;5.63;;
20393;SDS011;10356;50.544;9.642;2022-07-23T01:31:09;7.97;;;5.30;;
20393;SDS011;10356;50.544;9.642;2022-07-23T01:33:35;6.88;;;5.47;;
20393;SDS011;10356;50.544;9.642;2022-07-23T01:36:02;7.68;;;5.90;;
20393;SDS011;10356;50.544;9.642;2022-07-23T01:38:29;6.43;;;5.40;;
20393;SDS011;10356;50.544;9.642;2022-07-23T01:40:57;7.20;;;5.03;;
20393;SDS011;10356;50.544;9.642;2022-07-23T01:43:23;5.97;;;5.38;;
20393;SDS011;10356;50.544;9.642;2022-07-23T01:45:50;5.97;;;4.97;;
20393;SDS011;10356;50.544;9.642;2022-07-23T01:48:16;6.35;;;5.50;;
20393;SDS011;10356;50.544;9.642;2022-07-23T01:50:43;6.03;;;5.13;;
20393;SDS011;10356;50.544;9.642;2022-07-23T01:53:09;7.82;;;5.38;;
20393;SDS011;10356;50.544;9.642;2022-07-23T01:55:36;5.43;;;4.93;;
20393;SDS011;10356;50.544;9.642;2022-07-23T01:58:04;5.82;;;5.22;;
20393;SDS011;10356;50.544;9.642;2022-07-23T02:00:31;6.93;;;5.13;;
20393;SDS011;10356;50.544;9.642;2022-07-23T02:02:58;8.95;;;6.15;;
20393;SDS011;10356;50.544;9.642;2022-07-23T02:05:24;6.43;;;5.30;;
20393;SDS011;10356;50.544;9.642;2022-07-23T02:07:53;6.60;;;5.40;;
20393;SDS011;10356;50.544;9.642;2022-07-23T02:10:20;6.32;;;4.93;;
20393;SDS011;10356;50.544;9.642;2022-07-23T02:12:47;7.38;;;4.90;;
20393;SDS011;10356;50.544;9.642;2022-07-23T02:15:15;7.93;;;5.25;;
20393;SDS011;10356;50.544;9.642;2022-07-23T02:17:41;10.18;;;5.53;;
20393;SDS011;10356;50.544;9.642;2022-07-23T02:20:08;6.88;;;5.28;;
20393;SDS011;10356;50.544;9.642;2022-07-23T02:22:36;7.28;;;5.70;;
20393;SDS011;10356;50.544;9.642;2022-07-23T02:25:03;6.70;;;5.60;;
20393;SDS011;10356;50.544;9.642;2022-07-23T02:27:31;6.35;;;5.30;;
20393;SDS011;10356;50.544;9.642;2022-07-23T02:29:58;6.65;;;5.95;;
20393;SDS011;10356;50.544;9.642;2022-07-23T02:32:27;6.45;;;5.80;;
20393;SDS011;10356;50.544;9.642;2022-07-23T02:34:53;7.05;;;6.22;;
20393;SDS011;10356;50.544;9.642;2022-07-23T02:37:20;11.07;;;7.15;;
20393;SDS011;10356;50.544;9.642;2022-07-23T02:39:46;8.07;;;6.50;;
20393;SDS011;10356;50.544;9.642;2022-07-23T02:42:13;7.97;;;6.70;;
20393;SDS011;10356;50.544;9.642;2022-07-23T02:44:40;8.05;;;6.65;;
20393;SDS011;10356;50.544;9.642;2022-07-23T02:47:07;7.65;;;6.63;;
20393;SDS011;10356;50.544;9.642;2022-07-23T02:49:34;6.57;;;5.97;;
20393;SDS011;10356;50.544;9.642;2022-07-23T02:52:01;13.95;;;6.30;;
20393;SDS011;10356;50.544;9.642;2022-07-23T02:54:28;8.07;;;6.35;;
20393;SDS011;10356;50.544;9.642;2022-07-23T02:56:54;9.13;;;6.88;;
20393;SDS011;10356;50.544;9.642;2022-07-23T02:59:21;7.15;;;6.45;;
20393;SDS011;10356;50.544;9.642;2022-07-23T03:01:47;9.68;;;6.53;;
20393;SDS011;10356;50.544;9.642;2022-07-23T03:04:14;9.73;;;6.85;;
20393;SDS011;10356;50.544;9.642;2022-07-23T03:06:42;9.63;;;6.45;;
20393;SDS011;10356;50.544;9.642;2022-07-23T03:09:08;9.10;;;6.88;;
20393;SDS011;10356;50.544;9.642;2022-07-23T03:11:35;8.63;;;7.13;;
20393;SDS011;10356;50.544;9.642;2022-07-23T03:14:01;8.80;;;7.18;;
20393;SDS011;10356;50.544;9.642;2022-07-23T03:16:28;8.93;;;6.85;;
20393;SDS011;10356;50.544;9.642;2022-07-23T03:18:54;7.85;;;7.03;;
20393;SDS011;10356;50.544;9.642;2022-07-23T03:21:21;8.70;;;7.63;;
20393;SDS011;10356;50.544;9.642;2022-07-23T03:23:49;9.27;;;6.88;;
20393;SDS011;10356;50.544;9.642;2022-07-23T03:26:15;9.50;;;7.13;;
20393;SDS011;10356;50.544;9.642;2022-07-23T03:28:41;9.02;;;6.90;;
20393;SDS011;10356;50.544;9.642;2022-07-23T03:31:08;7.95;;;6.95;;
20393;SDS011;10356;50.544;9.642;2022-07-23T03:33:35;7.90;;;7.10;;
20393;SDS011;10356;50.544;9.642;2022-07-23T03:36:01;11.30;;;6.97;;
20393;SDS011;10356;50.544;9.642;2022-07-23T03:38:28;8.75;;;6.10;;
20393;SDS011;10356;50.544;9.642;2022-07-23T03:40:56;8.00;;;7.20;;
20393;SDS011;10356;50.544;9.642;2022-07-23T03:43:22;10.10;;;6.90;;
20393;SDS011;10356;50.544;9.642;2022-07-23T03:45:50;9.00;;;6.88;;
20393;SDS011;10356;50.544;9.642;2022-07-23T03:48:17;8.32;;;6.88;;
20393;SDS011;10356;50.544;9.642;2022-07-23T03:50:43;10.57;;;7.38;;
20393;SDS011;10356;50.544;9.642;2022-07-23T03:53:10;7.78;;;6.97;;
20393;SDS011;10356;50.544;9.642;2022-07-23T03:55:36;9.52;;;7.13;;
20393;SDS011;10356;50.544;9.642;2022-07-23T03:58:04;8.30;;;7.22;;
20393;SDS011;10356;50.544;9.642;2022-07-23T04:00:31;9.70;;;7.05;;
20393;SDS011;10356;50.544;9.642;2022-07-23T04:02:57;10.55;;;7.70;;
20393;SDS011;10356;50.544;9.642;2022-07-23T04:05:24;8.10;;;7.30;;
20393;SDS011;10356;50.544;9.642;2022-07-23T04:07:50;8.88;;;7.13;;
20393;SDS011;10356;50.544;9.642;2022-07-23T04:10:17;10.35;;;7.30;;
20393;SDS011;10356;50.544;9.642;2022-07-23T04:12:43;8.98;;;7.82;;
20393;SDS011;10356;50.544;9.642;2022-07-23T04:15:11;7.95;;;6.93;;
20393;SDS011;10356;50.544;9.642;2022-07-23T04:17:38;8.30;;;6.82;;
20393;SDS011;10356;50.544;9.642;2022-07-23T04:20:04;9.45;;;7.88;;
20393;SDS011;10356;50.544;9.642;2022-07-23T04:22:31;9.35;;;7.97;;
20393;SDS011;10356;50.544;9.642;2022-07-23T04:24:58;9.98;;;7.82;;
20393;SDS011;10356;50.544;9.642;2022-07-23T04:27:25;8.18;;;7.32;;
20393;SDS011;10356;50.544;9.642;2022-07-23T04:29:51;8.85;;;7.95;;
20393;SDS011;10356;50.544;9.642;2022-07-23T04:32:19;10.70;;;8.13;;
20393;SDS011;10356;50.544;9.642;2022-07-23T04:34:45;9.13;;;7.72;;
20393;SDS011;10356;50.544;9.642;2022-07-23T04:37:12;7.95;;;7.15;;
20393;SDS011;10356;50.544;9.642;2022-07-23T04:39:38;8.10;;;7.30;;
20393;SDS011;10356;50.544;9.642;2022-07-23T04:42:05;8.98;;;7.30;;
20393;SDS011;10356;50.544;9.642;2022-07-23T04:44:31;9.85;;;7.80;;
20393;SDS011;10356;50.544;9.642;2022-07-23T04:46:58;11.82;;;8.40;;
20393;SDS011;10356;50.544;9.642;2022-07-23T04:49:26;9.68;;;7.55;;
20393;SDS011;10356;50.544;9.642;2022-07-23T04:51:52;9.48;;;7.90;;
20393;SDS011;10356;50.544;9.642;2022-07-23T04:54:19;10.05;;;8.05;;
20393;SDS011;10356;50.544;9.642;2022-07-23T04:56:46;8.88;;;7.63;;
20393;SDS011;10356;50.544;9.642;2022-07-23T04:59:13;8.50;;;7.70;;
20393;SDS011;10356;50.544;9.642;2022-07-23T05:01:39;10.65;;;8.30;;
20393;SDS011;10356;50.544;9.642;2022-07-23T05:04:06;8.98;;;8.07;;
20393;SDS011;10356;50.544;9.642;2022-07-23T05:06:34;8.45;;;7.38;;
20393;SDS011;10356;50.544;9.642;2022-07-23T05:09:01;8.35;;;7.53;;
20393;SDS011;10356;50.544;9.642;2022-07-23T05:11:27;8.27;;;7.47;;
20393;SDS011;10356;50.544;9.642;2022-07-23T05:13:54;9.48;;;7.65;;
20393;SDS011;10356;50.544;9.642;2022-07-23T05:16:20;8.73;;;6.95;;
20393;SDS011;10356;50.544;9.642;2022-07-23T05:18:47;9.05;;;7.55;;
20393;SDS011;10356;50.544;9.642;2022-07-23T05:21:13;9.45;;;8.00;;
20393;SDS011;10356;50.544;9.642;2022-07-23T05:23:41;8.73;;;7.82;;
20393;SDS011;10356;50.544;9.642;2022-07-23T05:26:08;9.07;;;8.20;;
20393;SDS011;10356;50.544;9.642;2022-07-23T05:28:34;8.85;;;7.95;;
20393;SDS011;10356;50.544;9.642;2022-07-23T05:31:01;8.57;;;7.35;;
20393;SDS011;10356;50.544;9.642;2022-07-23T05:33:28;8.82;;;7.72;;
20393;SDS011;10356;50.544;9.642;2022-07-23T05:35:59;10.60;;;8.43;;
20393;SDS011;10356;50.544;9.642;2022-07-23T05:38:26;9.18;;;8.27;;
20393;SDS011;10356;50.544;9.642;2022-07-23T05:40:54;9.60;;;8.60;;
20393;SDS011;10356;50.544;9.642;2022-07-23T05:43:21;9.80;;;8.18;;
20393;SDS011;10356;50.544;9.642;2022-07-23T05:45:47;9.07;;;8.18;;
20393;SDS011;10356;50.544;9.642;2022-07-23T05:48:14;8.85;;;7.95;;
20393;SDS011;10356;50.544;9.642;2022-07-23T05:50:40;10.57;;;8.13;;
20393;SDS011;10356;50.544;9.642;2022-07-23T05:53:07;9.65;;;8.55;;
20393;SDS011;10356;50.544;9.642;2022-07-23T05:55:34;11.65;;;8.60;;
20393;SDS011;10356;50.544;9.642;2022-07-23T05:58:02;8.98;;;8.07;;
20393;SDS011;10356;50.544;9.642;2022-07-23T06:00:28;9.48;;;8.43;;
20393;SDS011;10356;50.544;9.642;2022-07-23T06:02:55;9.73;;;8.52;;
20393;SDS011;10356;50.544;9.642;2022-07-23T06:05:22;10.30;;;8.52;;
20393;SDS011;10356;50.544;9.642;2022-07-23T06:07:49;9.10;;;8.20;;
20393;SDS011;10356;50.544;9.642;2022-07-23T06:10:16;11.27;;;8.75;;
20393;SDS011;10356;50.544;9.642;2022-07-23T06:12:43;10.77;;;9.07;;
20393;SDS011;10356;50.544;9.642;2022-07-23T06:15:11;9.82;;;8.13;;
20393;SDS011;10356;50.544;9.642;2022-07-23T06:17:37;9.60;;;8.38;;
20393;SDS011;10356;50.544;9.642;2022-07-23T06:20:05;9.68;;;8.70;;
20393;SDS011;10356;50.544;9.642;2022-07-23T06:22:32;9.68;;;8.40;;
20393;SDS011;10356;50.544;9.642;2022-07-23T06:24:59;9.93;;;8.93;;
20393;SDS011;10356;50.544;9.642;2022-07-23T06:27:25;10.43;;;9.32;;
20393;SDS011;10356;50.544;9.642;2022-07-23T06:29:52;10.25;;;8.70;;
20393;SDS011;10356;50.544;9.642;2022-07-23T06:32:20;10.63;;;9.00;;
20393;SDS011;10356;50.544;9.642;2022-07-23T06:34:47;11.70;;;9.57;;
20393;SDS011;10356;50.544;9.642;2022-07-23T06:37:14;11.10;;;9.20;;
20393;SDS011;10356;50.544;9.642;2022-07-23T06:39:41;11.18;;;8.90;;
20393;SDS011;10356;50.544;9.642;2022-07-23T06:42:07;11.75;;;9.60;;
20393;SDS011;10356;50.544;9.642;2022-07-23T06:44:35;13.27;;;10.63;;
20393;SDS011;10356;50.544;9.642;2022-07-23T06:47:01;11.20;;;10.02;;
20393;SDS011;10356;50.544;9.642;2022-07-23T06:49:29;10.35;;;9.32;;
20393;SDS011;10356;50.544;9.642;2022-07-23T06:51:56;11.15;;;10.00;;
20393;SDS011;10356;50.544;9.642;2022-07-23T06:54:23;10.63;;;9.52;;
20393;SDS011;10356;50.544;9.642;2022-07-23T06:56:49;12.57;;;9.95;;
20393;SDS011;10356;50.544;9.642;2022-07-23T06:59:16;11.48;;;10.32;;
20393;SDS011;10356;50.544;9.642;2022-07-23T07:01:42;10.75;;;9.52;;
20393;SDS011;10356;50.544;9.642;2022-07-23T07:04:09;12.40;;;9.98;;
20393;SDS011;10356;50.544;9.642;2022-07-23T07:06:37;10.82;;;9.80;;
20393;SDS011;10356;50.544;9.642;2022-07-23T07:09:03;11.52;;;10.07;;
20393;SDS011;10356;50.544;9.642;2022-07-23T07:11:30;11.35;;;9.98;;
20393;SDS011;10356;50.544;9.642;2022-07-23T07:13:57;12.55;;;10.30;;
20393;SDS011;10356;50.544;9.642;2022-07-23T07:16:23;11.07;;;10.07;;
20393;SDS011;10356;50.544;9.642;2022-07-23T07:18:50;13.02;;;10.43;;
20393;SDS011;10356;50.544;9.642;2022-07-23T07:21:16;11.30;;;10.20;;
20393;SDS011;10356;50.544;9.642;2022-07-23T07:23:44;11.18;;;9.93;;
20393;SDS011;10356;50.544;9.642;2022-07-23T07:26:10;13.40;;;10.15;;
20393;SDS011;10356;50.544;9.642;2022-07-23T07:28:37;10.75;;;9.75;;
20393;SDS011;10356;50.544;9.642;2022-07-23T07:31:04;11.55;;;10.18;;
20393;SDS011;10356;50.544;9.642;2022-07-23T07:33:30;12.32;;;10.93;;
20393;SDS011;10356;50.544;9.642;2022-07-23T07:35:57;13.07;;;11.23;;
20393;SDS011;10356;50.544;9.642;2022-07-23T07:38:24;14.45;;;10.60;;
20393;SDS011;10356;50.544;9.642;2022-07-23T07:40:52;11.75;;;10.55;;
20393;SDS011;10356;50.544;9.642;2022-07-23T07:43:18;11.95;;;10.75;;
20393;SDS011;10356;50.544;9.642;2022-07-23T07:45:45;12.23;;;11.02;;
20393;SDS011;10356;50.544;9.642;2022-07-23T07:48:11;12.77;;;10.80;;
20393;SDS011;10356;50.544;9.642;2022-07-23T07:50:38;15.10;;;11.23;;
20393;SDS011;10356;50.544;9.642;2022-07-23T07:53:04;12.07;;;10.75;;
20393;SDS011;10356;50.544;9.642;2022-07-23T07:55:31;12.52;;;10.65;;
20393;SDS011;10356;50.544;9.642;2022-07-23T07:57:59;11.30;;;9.43;;
20393;SDS011;10356;50.544;9.642;2022-07-23T08:00:26;12.85;;;11.55;;
20393;SDS011;10356;50.544;9.642;2022-07-23T08:02:53;13.77;;;11.10;;
20393;SDS011;10356;50.544;9.642;2022-07-23T08:05:21;12.38;;;11.07;;
20393;SDS011;10356;50.544;9.642;2022-07-23T08:07:49;18.70;;;12.98;;
20393;SDS011;10356;50.544;9.642;2022-07-23T08:10:16;11.10;;;10.00;;
20393;SDS011;10356;50.544;9.642;2022-07-23T08:12:43;13.80;;;11.20;;
20393;SDS011;10356;50.544;9.642;2022-07-23T08:15:14;12.30;;;10.90;;
20393;SDS011;10356;50.544;9.642;2022-07-23T08:17:41;13.35;;;11.95;;
20393;SDS011;10356;50.544;9.642;2022-07-23T08:20:09;12.88;;;10.07;;
20393;SDS011;10356;50.544;9.642;2022-07-23T08:22:43;11.32;;;10.13;;
20393;SDS011;10356;50.544;9.642;2022-07-23T08:25:13;11.73;;;10.52;;
20393;SDS011;10356;50.544;9.642;2022-07-23T08:27:41;13.95;;;12.40;;
20393;SDS011;10356;50.544;9.642;2022-07-23T08:30:08;14.18;;;11.10;;
20393;SDS011;10356;50.544;9.642;2022-07-23T08:32:49;11.52;;;10.27;;
20393;SDS011;10356;50.544;9.642;2022-07-23T08:35:17;17.42;;;10.70;;
20393;SDS011;10356;50.544;9.642;2022-07-23T08:37:47;12.43;;;10.95;;
20393;SDS011;10356;50.544;9.642;2022-07-23T08:40:14;14.30;;;10.57;;
20393;SDS011;10356;50.544;9.642;2022-07-23T08:42:40;11.30;;;10.20;;
20393;SDS011;10356;50.544;9.642;2022-07-23T08:45:07;12.23;;;11.02;;
20393;SDS011;10356;50.544;9.642;2022-07-23T08:47:35;12.02;;;10.93;;
20393;SDS011;10356;50.544;9.642;2022-07-23T08:50:05;12.00;;;10.90;;
20393;SDS011;10356;50.544;9.642;2022-07-23T08:52:33;12.23;;;10.85;;
20393;SDS011;10356;50.544;9.642;2022-07-23T08:55:00;10.93;;;9.82;;
20393;SDS011;10356;50.544;9.642;2022-07-23T08:57:27;11.80;;;9.90;;
20393;SDS011;10356;50.544;9.642;2022-07-23T08:59:54;13.15;;;10.40;;
20393;SDS011;10356;50.544;9.642;2022-07-23T09:02:20;12.30;;;11.00;;
20393;SDS011;10356;50.544;9.642;2022-07-23T09:04:47;10.68;;;9.68;;
20393;SDS011;10356;50.544;9.642;2022-07-23T09:07:15;12.73;;;10.65;;
20393;SDS011;10356;50.544;9.642;2022-07-23T09:09:41;12.13;;;10.07;;
20393;SDS011;10356;50.544;9.642;2022-07-23T09:12:09;10.27;;;9.23;;
20393;SDS011;10356;50.544;9.642;2022-07-23T09:14:37;10.15;;;9.15;;
20393;SDS011;10356;50.544;9.642;2022-07-23T09:17:08;11.90;;;10.38;;
20393;SDS011;10356;50.544;9.642;2022-07-23T09:19:36;11.10;;;10.10;;
20393;SDS011;10356;50.544;9.642;2022-07-23T09:22:17;12.77;;;11.30;;
20393;SDS011;10356;50.544;9.642;2022-07-23T09:25:03;12.77;;;11.40;;
20393;SDS011;10356;50.544;9.642;2022-07-23T09:27:50;12.05;;;10.85;;
20393;SDS011;10356;50.544;9.642;2022-07-23T09:30:19;11.32;;;10.32;;
20393;SDS011;10356;50.544;9.642;2022-07-23T09:38:15;13.00;;;10.57;;
20393;SDS011;10356;50.544;9.642;2022-07-23T09:40:43;10.05;;;9.05;;
20393;SDS011;10356;50.544;9.642;2022-07-23T09:43:10;9.20;;;8.30;;
20393;SDS011;10356;50.544;9.642;2022-07-23T09:45:37;9.57;;;8.68;;
20393;SDS011;10356;50.544;9.642;2022-07-23T09:48:11;11.20;;;10.10;;
20393;SDS011;10356;50.544;9.642;2022-07-23T09:50:40;10.18;;;9.27;;
20393;SDS011;10356;50.544;9.642;2022-07-23T09:53:07;10.20;;;9.20;;
20393;SDS011;10356;50.544;9.642;2022-07-23T09:55:36;12.45;;;9.50;;
20393;SDS011;10356;50.544;9.642;2022-07-23T09:58:04;9.57;;;8.65;;
20393;SDS011;10356;50.544;9.642;2022-07-23T10:00:32;9.50;;;7.88;;
20393;SDS011;10356;50.544;9.642;2022-07-23T10:02:59;7.70;;;7.00;;
20393;SDS011;10356;50.544;9.642;2022-07-23T10:05:27;8.85;;;7.95;;
20393;SDS011;10356;50.544;9.642;2022-07-23T10:07:56;10.60;;;7.63;;
20393;SDS011;10356;50.544;9.642;2022-07-23T10:10:25;9.15;;;7.90;;
20393;SDS011;10356;50.544;9.642;2022-07-23T10:12:54;9.40;;;8.50;;
20393;SDS011;10356;50.544;9.642;2022-07-23T10:15:39;8.10;;;7.30;;
20393;SDS011;10356;50.544;9.642;2022-07-23T10:18:06;7.80;;;7.00;;
20393;SDS011;10356;50.544;9.642;2022-07-23T10:20:36;9.65;;;6.78;;
20393;SDS011;10356;50.544;9.642;2022-07-23T10:23:04;8.15;;;6.55;;
20393;SDS011;10356;50.544;9.642;2022-07-23T10:25:40;7.93;;;6.63;;
20393;SDS011;10356;50.544;9.642;2022-07-23T10:28:17;7.55;;;6.85;;
20393;SDS011;10356;50.544;9.642;2022-07-23T10:31:00;10.27;;;6.72;;
20393;SDS011;10356;50.544;9.642;2022-07-23T10:33:32;7.78;;;6.43;;
20393;SDS011;10356;50.544;9.642;2022-07-23T10:36:11;7.22;;;6.63;;
20393;SDS011;10356;50.544;9.642;2022-07-23T10:38:47;7.07;;;6.28;;
20393;SDS011;10356;50.544;9.642;2022-07-23T10:41:30;6.93;;;6.32;;
20393;SDS011;10356;50.544;9.642;2022-07-23T10:44:12;6.60;;;5.93;;
20393;SDS011;10356;50.544;9.642;2022-07-23T10:46:56;6.70;;;6.13;;
20393;SDS011;10356;50.544;9.642;2022-07-23T10:49:37;8.02;;;6.18;;
20393;SDS011;10356;50.544;9.642;2022-07-23T10:52:17;6.88;;;6.28;;
20393;SDS011;10356;50.544;9.642;2022-07-23T10:54:45;8.55;;;6.03;;
20393;SDS011;10356;50.544;9.642;2022-07-23T10:57:14;7.50;;;6.43;;
20393;SDS011;10356;50.544;9.642;2022-07-23T11:02:52;9.25;;;6.40;;
20393;SDS011;10356;50.544;9.642;2022-07-23T11:05:20;6.88;;;6.00;;
20393;SDS011;10356;50.544;9.642;2022-07-23T11:08:11;7.18;;;6.47;;
20393;SDS011;10356;50.544;9.642;2022-07-23T11:10:46;7.35;;;6.20;;
20393;SDS011;10356;50.544;9.642;2022-07-23T11:16:08;9.63;;;6.93;;
20393;SDS011;10356;50.544;9.642;2022-07-23T11:18:57;7.43;;;6.05;;
20393;SDS011;10356;50.544;9.642;2022-07-23T11:21:42;6.78;;;6.18;;
20393;SDS011;10356;50.544;9.642;2022-07-23T11:24:10;6.03;;;5.45;;
20393;SDS011;10356;50.544;9.642;2022-07-23T11:26:46;7.43;;;6.63;;
20393;SDS011;10356;50.544;9.642;2022-07-23T11:32:17;7.18;;;5.63;;
20393;SDS011;10356;50.544;9.642;2022-07-23T11:34:56;5.07;;;4.60;;
20393;SDS011;10356;50.544;9.642;2022-07-23T11:37:31;8.57;;;5.95;;
20393;SDS011;10356;50.544;9.642;2022-07-23T11:40:03;6.72;;;5.03;;
20393;SDS011;10356;50.544;9.642;2022-07-23T11:42:33;5.65;;;5.20;;
20393;SDS011;10356;50.544;9.642;2022-07-23T11:45:00;6.32;;;5.22;;
20393;SDS011;10356;50.544;9.642;2022-07-23T11:47:27;5.18;;;4.68;;
20393;SDS011;10356;50.544;9.642;2022-07-23T11:49:54;5.80;;;4.85;;
20393;SDS011;10356;50.544;9.642;2022-07-23T11:52:24;6.28;;;5.38;;
20393;SDS011;10356;50.544;9.642;2022-07-23T11:54:52;7.60;;;5.40;;
20393;SDS011;10356;50.544;9.642;2022-07-23T11:57:20;6.07;;;5.07;;
20393;SDS011;10356;50.544;9.642;2022-07-23T11:59:51;6.93;;;5.07;;
20393;SDS011;10356;50.544;9.642;2022-07-23T12:02:20;5.80;;;5.15;;
20393;SDS011;10356;50.544;9.642;2022-07-23T12:04:48;5.70;;;5.20;;
20393;SDS011;10356;50.544;9.642;2022-07-23T12:07:23;6.57;;;4.60;;
20393;SDS011;10356;50.544;9.642;2022-07-23T12:09:51;4.93;;;4.47;;
20393;SDS011;10356;50.544;9.642;2022-07-23T12:12:18;5.90;;;4.97;;
20393;SDS011;10356;50.544;9.642;2022-07-23T12:14:49;6.18;;;5.40;;
20393;SDS011;10356;50.544;9.642;2022-07-23T12:17:17;6.07;;;4.80;;
20393;SDS011;10356;50.544;9.642;2022-07-23T12:19:44;5.40;;;4.90;;
20393;SDS011;10356;50.544;9.642;2022-07-23T12:22:11;15.32;;;10.65;;
20393;SDS011;10356;50.544;9.642;2022-07-23T12:24:59;5.22;;;4.57;;
20393;SDS011;10356;50.544;9.642;2022-07-23T12:27:29;5.72;;;5.00;;
20393;SDS011;10356;50.544;9.642;2022-07-23T12:29:56;6.65;;;4.45;;
20393;SDS011;10356;50.544;9.642;2022-07-23T12:32:23;5.07;;;3.67;;
20393;SDS011;10356;50.544;9.642;2022-07-23T12:35:01;5.57;;;4.20;;
20393;SDS011;10356;50.544;9.642;2022-07-23T12:37:31;4.28;;;3.78;;
20393;SDS011;10356;50.544;9.642;2022-07-23T12:43:06;7.53;;;4.15;;
20393;SDS011;10356;50.544;9.642;2022-07-23T12:45:44;4.90;;;4.40;;
20393;SDS011;10356;50.544;9.642;2022-07-23T12:48:16;5.05;;;4.32;;
20393;SDS011;10356;50.544;9.642;2022-07-23T12:50:47;7.05;;;4.25;;
20393;SDS011;10356;50.544;9.642;2022-07-23T12:53:17;24.17;;;15.32;;
20393;SDS011;10356;50.544;9.642;2022-07-23T12:55:45;11.63;;;7.50;;
20393;SDS011;10356;50.544;9.642;2022-07-23T12:58:14;5.40;;;4.90;;
20393;SDS011;10356;50.544;9.642;2022-07-23T13:00:52;5.50;;;4.32;;
20393;SDS011;10356;50.544;9.642;2022-07-23T13:03:28;5.15;;;4.30;;
20393;SDS011;10356;50.544;9.642;2022-07-23T13:05:56;21.80;;;15.52;;
20393;SDS011;10356;50.544;9.642;2022-07-23T13:08:24;6.28;;;4.35;;
20393;SDS011;10356;50.544;9.642;2022-07-23T13:10:53;6.15;;;4.20;;
20393;SDS011;10356;50.544;9.642;2022-07-23T13:13:21;7.13;;;4.72;;
20393;SDS011;10356;50.544;9.642;2022-07-23T13:15:49;6.60;;;4.28;;
20393;SDS011;10356;50.544;9.642;2022-07-23T13:18:16;5.82;;;5.18;;
20393;SDS011;10356;50.544;9.642;2022-07-23T13:20:43;4.80;;;4.40;;
20393;SDS011;10356;50.544;9.642;2022-07-23T13:23:10;5.10;;;4.60;;
20393;SDS011;10356;50.544;9.642;2022-07-23T13:25:37;6.82;;;6.10;;
20393;SDS011;10356;50.544;9.642;2022-07-23T13:28:04;13.82;;;10.23;;
20393;SDS011;10356;50.544;9.642;2022-07-23T13:30:32;5.30;;;4.82;;
20393;SDS011;10356;50.544;9.642;2022-07-23T13:32:58;5.47;;;4.70;;
20393;SDS011;10356;50.544;9.642;2022-07-23T13:35:25;6.03;;;4.88;;
20393;SDS011;10356;50.544;9.642;2022-07-23T13:37:52;5.97;;;4.80;;
20393;SDS011;10356;50.544;9.642;2022-07-23T13:40:18;4.97;;;4.47;;
20393;SDS011;10356;50.544;9.642;2022-07-23T13:42:45;8.35;;;6.03;;
20393;SDS011;10356;50.544;9.642;2022-07-23T13:45:11;7.90;;;6.00;;
20393;SDS011;10356;50.544;9.642;2022-07-23T13:47:39;5.22;;;4.72;;
20393;SDS011;10356;50.544;9.642;2022-07-23T13:50:06;5.72;;;5.18;;
20393;SDS011;10356;50.544;9.642;2022-07-23T13:52:33;5.32;;;4.82;;
20393;SDS011;10356;50.544;9.642;2022-07-23T13:55:00;5.47;;;4.57;;
20393;SDS011;10356;50.544;9.642;2022-07-23T13:57:27;6.93;;;4.63;;
20393;SDS011;10356;50.544;9.642;2022-07-23T13:59:53;5.80;;;4.45;;
20393;SDS011;10356;50.544;9.642;2022-07-23T14:02:20;7.93;;;4.90;;
20393;SDS011;10356;50.544;9.642;2022-07-23T14:04:48;6.53;;;5.88;;
20393;SDS011;10356;50.544;9.642;2022-07-23T14:07:15;5.30;;;4.80;;
20393;SDS011;10356;50.544;9.642;2022-07-23T14:09:42;6.32;;;5.25;;
20393;SDS011;10356;50.544;9.642;2022-07-23T14:12:09;5.22;;;4.68;;
20393;SDS011;10356;50.544;9.642;2022-07-23T14:14:36;5.88;;;4.95;;
20393;SDS011;10356;50.544;9.642;2022-07-23T14:17:03;5.35;;;4.45;;
20393;SDS011;10356;50.544;9.642;2022-07-23T14:19:29;5.50;;;4.90;;
20393;SDS011;10356;50.544;9.642;2022-07-23T14:21:57;4.35;;;3.95;;
20393;SDS011;10356;50.544;9.642;2022-07-23T14:24:24;6.07;;;4.53;;
20393;SDS011;10356;50.544;9.642;2022-07-23T14:26:50;5.50;;;5.03;;
20393;SDS011;10356;50.544;9.642;2022-07-23T14:29:17;6.20;;;4.80;;
20393;SDS011;10356;50.544;9.642;2022-07-23T14:31:43;6.30;;;5.55;;
20393;SDS011;10356;50.544;9.642;2022-07-23T14:34:10;17.05;;;14.80;;
20393;SDS011;10356;50.544;9.642;2022-07-23T14:36:37;5.65;;;5.00;;
20393;SDS011;10356;50.544;9.642;2022-07-23T14:39:05;6.30;;;4.97;;
20393;SDS011;10356;50.544;9.642;2022-07-23T14:41:33;6.93;;;4.85;;
20393;SDS011;10356;50.544;9.642;2022-07-23T14:44:00;4.80;;;4.28;;
20393;SDS011;10356;50.544;9.642;2022-07-23T14:46:27;5.45;;;4.75;;
20393;SDS011;10356;50.544;9.642;2022-07-23T14:48:53;5.10;;;4.53;;
20393;SDS011;10356;50.544;9.642;2022-07-23T14:51:20;5.35;;;4.65;;
20393;SDS011;10356;50.544;9.642;2022-07-23T14:53:47;6.97;;;4.90;;
20393;SDS011;10356;50.544;9.642;2022-07-23T14:56:15;5.57;;;4.60;;
20393;SDS011;10356;50.544;9.642;2022-07-23T14:58:41;6.32;;;4.70;;
20393;SDS011;10356;50.544;9.642;2022-07-23T15:01:08;9.52;;;4.40;;
20393;SDS011;10356;50.544;9.642;2022-07-23T15:03:35;6.88;;;4.70;;